createdAt,value
2022-11-13T00:00:47.713Z,99.40
2022-11-13T00:03:18.041Z,99.20
2022-11-13T00:05:48.379Z,99.00
2022-11-13T00:08:31.031Z,98.80
2022-11-13T00:11:12.416Z,99.10
2022-11-13T00:13:44.975Z,99.30
2022-11-13T00:16:19.247Z,99.40
2022-11-13T00:18:50.196Z,99.00
2022-11-13T00:21:24.546Z,98.60
2022-11-13T00:23:55.583Z,98.80
2022-11-13T00:26:29.341Z,98.40
2022-11-13T00:29:04.404Z,97.80
2022-11-13T00:31:34.836Z,98.20
2022-11-13T00:39:33.497Z,96.90
2022-11-13T00:42:03.724Z,96.10
2022-11-13T00:44:34.335Z,95.90
2022-11-13T00:47:04.617Z,96.20
2022-11-13T00:49:35.239Z,94.10
2022-11-13T00:52:05.929Z,94.30
2022-11-13T00:54:36.208Z,92.90
2022-11-13T00:57:06.447Z,92.20
2022-11-13T00:59:36.852Z,92.30
2022-11-13T01:02:07.071Z,92.30
2022-11-13T01:04:37.686Z,91.40
2022-11-13T01:07:10.445Z,92.00
2022-11-13T01:09:41.221Z,92.00
2022-11-13T01:12:11.519Z,92.00
2022-11-13T01:14:42.211Z,92.60
2022-11-13T01:17:12.824Z,92.00
2022-11-13T01:19:43.014Z,91.70
2022-11-13T01:22:13.233Z,92.30
2022-11-13T01:24:43.777Z,92.10
2022-11-13T01:27:14.946Z,92.40
2022-11-13T01:29:46.046Z,92.30
2022-11-13T01:32:17.826Z,91.60
2022-11-13T01:34:49.909Z,91.70
2022-11-13T01:37:21.113Z,92.00
2022-11-13T01:39:51.825Z,92.20
2022-11-13T01:42:22.084Z,92.40
2022-11-13T01:45:06.433Z,92.10
2022-11-13T01:47:36.732Z,92.80
2022-11-13T01:50:07.902Z,92.80
2022-11-13T01:52:44.760Z,92.80
2022-11-13T01:55:20.313Z,91.90
2022-11-13T01:57:50.697Z,91.40
2022-11-13T02:00:22.387Z,91.60
2022-11-13T02:02:52.565Z,91.20
2022-11-13T02:05:22.969Z,91.80
2022-11-13T02:07:53.608Z,91.80
2022-11-13T02:10:23.921Z,91.30
2022-11-13T02:12:55.198Z,90.90
2022-11-13T02:15:29.786Z,91.00
2022-11-13T02:18:02.752Z,91.00
2022-11-13T02:20:48.533Z,91.70
2022-11-13T02:23:24.690Z,91.60
2022-11-13T02:25:57.413Z,90.80
2022-11-13T02:28:28.197Z,91.10
2022-11-13T02:30:59.338Z,90.60
2022-11-13T02:33:33.749Z,90.50
2022-11-13T02:36:05.233Z,91.50
2022-11-13T02:38:37.135Z,91.60
2022-11-13T02:41:07.462Z,90.70
2022-11-13T02:43:37.742Z,90.90
2022-11-13T02:46:08.247Z,91.70
2022-11-13T02:48:38.473Z,91.80
2022-11-13T02:51:08.793Z,92.00
2022-11-13T02:53:39.456Z,91.40
2022-11-13T02:56:10.167Z,91.40
2022-11-13T02:58:42.228Z,90.90
2022-11-13T03:01:12.992Z,91.10
2022-11-13T03:03:58.759Z,90.40
2022-11-13T03:06:29.135Z,91.20
2022-11-13T03:08:59.447Z,91.40
2022-11-13T03:11:30.223Z,92.10
2022-11-13T03:14:01.816Z,91.60
2022-11-13T03:16:32.499Z,91.40
2022-11-13T03:19:03.211Z,91.80
2022-11-13T03:21:35.411Z,91.60
2022-11-13T03:24:05.746Z,91.80
2022-11-13T03:26:37.242Z,91.90
2022-11-13T03:29:07.567Z,92.00
2022-11-13T03:31:38.455Z,91.90
2022-11-13T03:34:08.624Z,92.30
2022-11-13T03:36:38.863Z,92.10
2022-11-13T03:39:09.115Z,92.20
2022-11-13T03:41:39.506Z,92.20
2022-11-13T03:44:09.815Z,92.70
2022-11-13T03:46:40.047Z,92.80
2022-11-13T03:49:10.237Z,93.00
2022-11-13T03:51:40.642Z,93.00
2022-11-13T03:54:11.252Z,93.10
2022-11-13T03:56:41.909Z,93.20
2022-11-13T03:59:12.793Z,93.50
2022-11-13T04:01:43.540Z,93.80
2022-11-13T04:04:13.874Z,93.90
2022-11-13T04:06:44.335Z,94.40
2022-11-13T04:09:15.842Z,94.60
2022-11-13T04:11:46.557Z,94.30
2022-11-13T04:14:17.267Z,94.70
2022-11-13T04:16:47.570Z,94.70
2022-11-13T04:19:18.209Z,94.70
2022-11-13T04:21:48.842Z,94.90
2022-11-13T04:24:19.014Z,94.80
2022-11-13T04:26:49.349Z,95.00
2022-11-13T04:29:19.715Z,95.00
2022-11-13T04:31:50.885Z,95.40
2022-11-13T04:34:21.049Z,95.60
2022-11-13T04:36:51.325Z,95.70
2022-11-13T04:39:21.561Z,95.90
2022-11-13T04:42:09.685Z,96.00
2022-11-13T04:44:40.318Z,96.30
2022-11-13T04:47:11.523Z,96.50
2022-11-13T04:49:42.221Z,96.80
2022-11-13T04:52:13.412Z,97.10
2022-11-13T04:54:44.386Z,97.60
2022-11-13T04:57:14.663Z,97.90
2022-11-13T04:59:45.265Z,98.30
2022-11-13T05:02:17.510Z,98.60
2022-11-13T05:04:48.353Z,98.90
2022-11-13T05:07:20.830Z,99.10
2022-11-13T05:09:52.559Z,99.30
2022-11-13T05:12:23.965Z,99.40
2022-11-13T05:14:55.570Z,99.70
2022-11-13T05:17:26.473Z,99.90
2022-11-13T05:19:57.175Z,99.90
2022-11-13T05:22:27.863Z,99.90
2022-11-13T05:24:58.045Z,99.00
2022-11-13T05:27:28.507Z,99.20
2022-11-13T05:29:59.284Z,98.50
2022-11-13T05:32:29.899Z,98.60
2022-11-13T05:35:01.437Z,98.10
2022-11-13T05:37:32.583Z,97.30
2022-11-13T05:40:03.153Z,97.50
2022-11-13T05:42:33.701Z,97.80
2022-11-13T05:45:04.065Z,97.80
2022-11-13T05:47:36.514Z,97.60
2022-11-13T05:50:07.712Z,97.50
2022-11-13T05:52:38.749Z,97.50
2022-11-13T05:55:10.068Z,97.70
2022-11-13T05:57:40.986Z,98.10
2022-11-13T06:00:12.930Z,98.20
2022-11-13T06:02:44.651Z,98.50
2022-11-13T06:05:15.381Z,98.60
2022-11-13T06:07:45.871Z,98.70
2022-11-13T06:10:16.037Z,98.80
2022-11-13T06:12:46.344Z,98.90
2022-11-13T06:15:16.561Z,99.10
2022-11-13T06:17:50.017Z,99.10
2022-11-13T06:20:20.341Z,99.40
2022-11-13T06:22:51.004Z,99.70
2022-11-13T06:25:22.572Z,99.90
2022-11-13T06:27:53.403Z,99.70
2022-11-13T06:30:24.921Z,99.80
2022-11-13T06:32:56.163Z,99.90
2022-11-13T06:35:26.811Z,99.90
2022-11-13T06:38:00.456Z,99.90
2022-11-13T06:40:31.325Z,99.90
2022-11-13T06:43:02.428Z,99.90
2022-11-13T06:45:32.766Z,99.90
2022-11-13T06:48:02.980Z,99.90
2022-11-13T06:50:33.657Z,99.90
2022-11-13T06:53:05.250Z,99.90
2022-11-13T06:55:36.072Z,99.90
2022-11-13T06:58:06.341Z,99.90
2022-11-13T07:00:39.780Z,99.90
2022-11-13T07:03:21.895Z,99.90
2022-11-13T07:05:53.195Z,99.90
2022-11-13T07:08:32.857Z,99.90
2022-11-13T07:11:03.491Z,99.90
2022-11-13T07:13:34.218Z,99.90
2022-11-13T07:16:16.242Z,99.90
2022-11-13T07:18:55.120Z,99.90
2022-11-13T07:21:27.379Z,99.90
2022-11-13T07:23:58.526Z,99.90
2022-11-13T07:26:30.301Z,99.90
2022-11-13T07:29:00.939Z,99.90
2022-11-13T07:31:31.590Z,99.90
2022-11-13T07:34:01.748Z,99.90
2022-11-13T07:36:32.458Z,99.90
2022-11-13T07:39:03.051Z,99.90
2022-11-13T07:41:33.393Z,99.90
2022-11-13T07:44:08.804Z,99.90
2022-11-13T07:46:40.093Z,99.90
2022-11-13T07:49:10.706Z,99.90
2022-11-13T07:51:40.892Z,99.90
2022-11-13T07:54:11.279Z,99.90
2022-11-13T07:56:41.570Z,99.90
2022-11-13T07:59:11.795Z,99.90
2022-11-13T08:01:42.024Z,99.90
2022-11-13T08:04:12.556Z,99.90
2022-11-13T08:06:42.791Z,99.90
2022-11-13T08:09:13.019Z,99.90
2022-11-13T08:11:44.684Z,99.90
2022-11-13T08:14:15.494Z,99.90
2022-11-13T08:16:46.760Z,99.90
2022-11-13T08:19:22.220Z,99.90
2022-11-13T08:21:54.116Z,99.90
2022-11-13T08:24:28.916Z,99.90
2022-11-13T08:27:00.553Z,99.90
2022-11-13T08:29:31.711Z,99.90
2022-11-13T08:32:04.170Z,99.90
2022-11-13T08:34:35.133Z,99.90
2022-11-13T08:37:05.945Z,99.90
2022-11-13T08:39:37.283Z,99.90
2022-11-13T08:42:08.716Z,99.90
2022-11-13T08:44:39.705Z,99.90
2022-11-13T08:47:10.639Z,99.90
2022-11-13T08:49:41.074Z,99.90
2022-11-13T08:52:11.351Z,99.90
2022-11-13T08:54:41.688Z,99.90
2022-11-13T08:57:12.357Z,99.90
2022-11-13T08:59:42.764Z,99.90
2022-11-13T09:02:17.690Z,99.90
2022-11-13T09:04:47.996Z,99.90
2022-11-13T09:07:22.061Z,99.90
2022-11-13T09:09:55.878Z,99.90
2022-11-13T09:12:26.947Z,99.90
2022-11-13T09:14:58.492Z,99.90
2022-11-13T09:17:30.190Z,99.90
2022-11-13T09:20:04.350Z,99.90
2022-11-13T09:22:37.938Z,99.90
2022-11-13T09:25:09.243Z,99.90
2022-11-13T09:27:40.861Z,99.90
2022-11-13T09:30:11.877Z,99.90
2022-11-13T09:32:42.807Z,99.90
2022-11-13T09:35:14.295Z,99.90
2022-11-13T09:37:45.597Z,99.90
2022-11-13T09:40:30.156Z,99.90
2022-11-13T09:43:03.440Z,99.90
2022-11-13T09:45:36.156Z,99.90
2022-11-13T09:48:31.832Z,99.90
2022-11-13T09:51:10.847Z,99.90
2022-11-13T09:53:43.151Z,99.90
2022-11-13T09:56:31.068Z,99.90
2022-11-13T09:59:18.462Z,99.90
2022-11-13T10:02:06.754Z,99.90
2022-11-13T10:05:15.454Z,99.90
2022-11-13T10:08:16.404Z,99.90
2022-11-13T10:10:59.147Z,99.90
2022-11-13T10:13:52.149Z,99.90
2022-11-13T10:16:44.576Z,99.90
2022-11-13T10:19:21.381Z,99.90
2022-11-13T10:22:32.347Z,99.90
2022-11-13T10:25:13.753Z,99.90
2022-11-13T10:27:44.872Z,99.90
2022-11-13T10:30:19.277Z,99.90
2022-11-13T10:32:50.235Z,99.90
2022-11-13T10:35:43.751Z,99.90
2022-11-13T10:38:45.175Z,99.90
2022-11-13T10:41:18.513Z,99.90
2022-11-13T10:44:22.062Z,99.90
2022-11-13T10:47:06.508Z,99.90
2022-11-13T10:49:37.228Z,99.90
2022-11-13T10:52:18.234Z,99.90
2022-11-13T10:54:52.121Z,99.90
2022-11-13T10:57:37.686Z,99.90
2022-11-13T11:00:41.238Z,99.90
2022-11-13T11:03:20.451Z,99.90
2022-11-13T11:06:04.901Z,99.90
2022-11-13T11:08:39.428Z,99.90
2022-11-13T11:15:05.405Z,99.90
2022-11-13T11:17:45.607Z,99.90
2022-11-13T11:20:58.899Z,99.90
2022-11-13T11:23:43.772Z,99.90
2022-11-13T11:26:43.868Z,99.90
2022-11-13T11:30:06.706Z,99.90
2022-11-13T11:32:57.677Z,99.90
2022-11-13T11:35:40.984Z,99.90
2022-11-13T11:41:21.752Z,99.90
2022-11-13T11:44:17.768Z,99.90
2022-11-13T11:46:48.157Z,99.90
2022-11-13T11:49:18.721Z,99.90
2022-11-13T11:52:25.840Z,99.90
2022-11-13T11:55:16.256Z,99.90
2022-11-13T11:58:18.269Z,99.90
2022-11-13T12:01:12.912Z,99.90
2022-11-13T12:03:47.610Z,99.90
2022-11-13T12:06:43.350Z,99.90
2022-11-13T12:09:38.112Z,99.90
2022-11-13T12:12:43.620Z,99.90
2022-11-13T12:15:28.323Z,99.90
2022-11-13T12:18:20.102Z,99.90
2022-11-13T12:21:02.442Z,99.90
2022-11-13T12:24:00.139Z,99.90
2022-11-13T12:26:33.859Z,99.90
2022-11-13T12:29:23.328Z,99.90
2022-11-13T12:32:04.829Z,99.90
2022-11-13T12:34:39.776Z,99.90
2022-11-13T12:37:17.967Z,99.90
2022-11-13T12:39:59.637Z,99.90
2022-11-13T12:42:48.309Z,99.90
2022-11-13T12:45:39.727Z,99.90
2022-11-13T12:48:17.609Z,99.90
2022-11-13T12:51:07.489Z,99.90
2022-11-13T12:53:54.714Z,99.90
2022-11-13T12:56:30.346Z,99.90
2022-11-13T13:02:11.119Z,99.90
2022-11-13T13:05:11.125Z,99.90
2022-11-13T13:08:10.462Z,99.90
2022-11-13T13:11:02.096Z,99.90
2022-11-13T13:13:41.612Z,99.90
2022-11-13T13:16:12.536Z,99.90
2022-11-13T13:18:43.280Z,99.90
2022-11-13T13:21:14.554Z,99.90
2022-11-13T13:23:52.744Z,99.90
2022-11-13T13:26:30.094Z,99.90
2022-11-13T13:29:21.449Z,99.90
2022-11-13T13:32:35.715Z,99.90
2022-11-13T13:35:21.548Z,99.90
2022-11-13T13:38:01.349Z,99.90
2022-11-13T13:41:01.194Z,99.90
2022-11-13T13:44:18.042Z,99.90
2022-11-13T13:46:48.727Z,99.90
2022-11-13T13:49:24.388Z,99.90
2022-11-13T13:52:00.499Z,99.90
2022-11-13T13:54:35.387Z,99.90
2022-11-13T13:57:08.009Z,99.90
2022-11-13T13:59:40.224Z,99.90
2022-11-13T14:02:25.878Z,99.90
2022-11-13T14:04:58.043Z,99.90
2022-11-13T14:07:35.718Z,99.90
2022-11-13T14:10:21.055Z,99.90
2022-11-13T14:12:51.805Z,99.90
2022-11-13T14:15:27.625Z,99.90
2022-11-13T14:18:20.162Z,99.90
2022-11-13T14:20:55.474Z,99.90
2022-11-13T14:23:33.279Z,99.90
2022-11-13T14:26:04.786Z,99.90
2022-11-13T14:28:37.629Z,99.90
2022-11-13T14:31:10.459Z,99.90
2022-11-13T14:33:54.805Z,99.90
2022-11-13T14:36:33.502Z,99.90
2022-11-13T14:39:06.120Z,99.90
2022-11-13T14:41:45.399Z,99.90
2022-11-13T14:44:16.108Z,99.90
2022-11-13T14:46:46.904Z,99.90
2022-11-13T14:49:32.455Z,99.90
2022-11-13T14:52:03.796Z,99.90
2022-11-13T14:55:12.921Z,99.90
2022-11-13T14:57:31.084Z,99.90
2022-11-13T15:00:21.408Z,99.90
2022-11-13T15:02:51.549Z,99.90
2022-11-13T15:05:22.311Z,99.90
2022-11-13T15:07:54.819Z,99.90
2022-11-13T15:10:30.170Z,99.90
2022-11-13T15:13:00.964Z,99.90
2022-11-13T15:15:32.656Z,99.90
2022-11-13T15:18:06.192Z,99.90
2022-11-13T15:20:37.715Z,99.90
2022-11-13T15:23:11.573Z,99.90
2022-11-13T15:25:41.830Z,99.90
2022-11-13T15:28:12.259Z,99.90
2022-11-13T15:30:42.471Z,99.90
2022-11-13T15:33:18.336Z,99.90
2022-11-13T15:35:50.459Z,99.90
2022-11-13T15:38:30.309Z,99.90
2022-11-13T15:41:01.139Z,99.90
2022-11-13T15:43:31.839Z,99.90
2022-11-13T15:46:03.067Z,99.90
2022-11-13T15:48:33.379Z,99.90
2022-11-13T15:51:03.668Z,99.90
2022-11-13T15:53:34.164Z,99.90
2022-11-13T15:56:07.239Z,99.90
2022-11-13T15:58:37.915Z,99.90
2022-11-13T16:01:08.710Z,99.90
2022-11-13T16:03:41.749Z,99.90
2022-11-13T16:06:17.899Z,99.90
2022-11-13T16:08:49.799Z,99.90
2022-11-13T16:11:23.922Z,99.90
2022-11-13T16:13:54.255Z,99.90
2022-11-13T16:16:27.804Z,99.90
2022-11-13T16:19:00.348Z,99.60
2022-11-13T16:21:31.592Z,99.30
2022-11-13T16:24:01.834Z,98.70
2022-11-13T16:26:33.101Z,98.70
2022-11-13T16:29:18.972Z,98.60
2022-11-13T16:31:49.407Z,97.70
2022-11-13T16:34:19.616Z,98.70
2022-11-13T16:36:50.360Z,99.10
2022-11-13T16:39:20.569Z,99.20
2022-11-13T16:41:50.874Z,99.40
2022-11-13T16:44:21.112Z,99.10
2022-11-13T16:46:51.849Z,99.40
2022-11-13T16:49:22.117Z,99.70
2022-11-13T16:51:54.113Z,98.70
2022-11-13T16:54:24.393Z,98.60
2022-11-13T16:56:54.581Z,98.90
2022-11-13T16:59:24.988Z,99.40
2022-11-13T17:01:58.600Z,98.90
2022-11-13T17:04:28.739Z,98.80
2022-11-13T17:06:59.399Z,99.00
2022-11-13T17:09:31.406Z,99.20
2022-11-13T17:12:02.775Z,99.10
2022-11-13T17:14:33.476Z,98.70
2022-11-13T17:17:05.681Z,98.90
2022-11-13T17:19:36.844Z,99.00
2022-11-13T17:22:07.779Z,98.80
2022-11-13T17:24:38.646Z,98.90
2022-11-13T17:27:11.915Z,98.90
2022-11-13T17:29:43.646Z,98.60
2022-11-13T17:32:14.399Z,98.40
2022-11-13T17:34:46.674Z,98.40
2022-11-13T17:37:17.955Z,98.30
2022-11-13T17:39:48.318Z,98.10
2022-11-13T17:42:18.929Z,98.30
2022-11-13T17:44:49.140Z,98.60
2022-11-13T17:47:19.419Z,98.30
2022-11-13T17:49:49.718Z,98.00
2022-11-13T17:52:20.174Z,97.90
2022-11-13T17:54:50.411Z,97.80
2022-11-13T17:57:24.178Z,98.50
2022-11-13T17:59:57.005Z,98.60
2022-11-13T18:02:27.902Z,98.40
2022-11-13T18:05:01.319Z,98.50
2022-11-13T18:07:33.092Z,99.00
2022-11-13T18:10:03.675Z,99.70
2022-11-13T18:12:35.658Z,99.70
2022-11-13T18:15:06.685Z,99.40
2022-11-13T18:17:37.428Z,99.50
2022-11-13T18:20:08.189Z,99.20
2022-11-13T18:22:38.518Z,98.80
2022-11-13T18:25:09.573Z,98.70
2022-11-13T18:27:41.760Z,98.70
2022-11-13T18:32:56.499Z,98.80
2022-11-13T18:35:26.645Z,98.00
2022-11-13T18:37:58.280Z,97.90
2022-11-13T18:40:28.531Z,97.80
2022-11-13T18:42:58.972Z,98.00
2022-11-13T18:45:29.288Z,98.20
2022-11-13T18:47:59.811Z,98.40
2022-11-13T18:50:30.156Z,98.60
2022-11-13T18:53:01.061Z,98.30
2022-11-13T18:55:31.695Z,98.30
2022-11-13T18:58:02.373Z,98.10
2022-11-13T19:00:32.617Z,98.00
2022-11-13T19:03:03.010Z,98.30
2022-11-13T19:05:33.301Z,98.50
2022-11-13T19:08:03.604Z,98.70
2022-11-13T19:10:35.850Z,98.80
2022-11-13T19:13:06.114Z,98.80
2022-11-13T19:15:39.459Z,98.40
2022-11-13T19:18:10.432Z,98.40
2022-11-13T19:20:43.060Z,98.20
2022-11-13T19:23:14.061Z,98.20
2022-11-13T19:25:44.846Z,98.10
2022-11-13T19:28:15.249Z,98.10
2022-11-13T19:30:50.117Z,98.40
2022-11-13T19:33:21.787Z,98.10
2022-11-13T19:35:53.998Z,98.40
2022-11-13T19:38:29.538Z,98.60
2022-11-13T19:40:59.981Z,98.00
2022-11-13T19:43:30.218Z,98.30
2022-11-13T19:46:00.464Z,98.70
2022-11-13T19:48:31.026Z,98.60
2022-11-13T19:51:11.794Z,98.60
2022-11-13T19:53:48.508Z,98.50
2022-11-13T19:56:23.659Z,98.30
2022-11-13T19:58:55.334Z,98.00
2022-11-13T20:01:30.845Z,98.20
2022-11-13T20:04:03.914Z,98.00
2022-11-13T20:06:38.713Z,97.70
2022-11-13T20:09:10.722Z,97.80
2022-11-13T20:11:41.431Z,98.00
2022-11-13T20:14:16.417Z,97.80
2022-11-13T20:16:47.214Z,98.20
2022-11-13T20:19:18.244Z,98.00
2022-11-13T20:21:49.139Z,98.00
2022-11-13T20:24:21.158Z,98.00
2022-11-13T20:26:53.917Z,98.50
2022-11-13T20:29:24.292Z,98.40
2022-11-13T20:31:54.892Z,97.90
2022-11-13T20:34:25.682Z,98.10
2022-11-13T20:36:56.898Z,98.30
2022-11-13T20:39:29.508Z,98.10
2022-11-13T20:42:01.224Z,97.70
2022-11-13T20:44:32.029Z,96.60
2022-11-13T20:47:03.207Z,96.90
2022-11-13T20:49:34.374Z,96.70
2022-11-13T20:52:06.737Z,97.10
2022-11-13T20:54:37.132Z,97.10
2022-11-13T20:57:08.726Z,97.40
2022-11-13T20:59:40.664Z,97.60
2022-11-13T21:02:13.074Z,97.30
2022-11-13T21:04:43.544Z,96.20
2022-11-13T21:07:13.786Z,96.40
2022-11-13T21:09:48.721Z,94.60
2022-11-13T21:12:21.966Z,95.50
2022-11-13T21:14:54.133Z,94.40
2022-11-13T21:17:24.362Z,94.80
2022-11-13T21:19:57.717Z,94.20
2022-11-13T21:22:28.121Z,93.60
2022-11-13T21:24:58.773Z,94.00
2022-11-13T21:27:28.962Z,94.00
2022-11-13T21:30:00.957Z,93.70
2022-11-13T21:32:34.599Z,93.70
2022-11-13T21:35:11.163Z,93.40
2022-11-13T21:37:45.541Z,92.40
2022-11-13T21:40:19.124Z,91.30
2022-11-13T21:42:49.728Z,90.70
2022-11-13T21:45:20.483Z,90.80
2022-11-13T21:47:52.193Z,87.00
2022-11-13T21:50:23.282Z,86.30
2022-11-13T21:52:55.110Z,88.90
2022-11-13T21:55:26.077Z,88.50
2022-11-13T21:57:56.736Z,88.50
2022-11-13T22:00:27.276Z,89.80
2022-11-13T22:02:57.495Z,88.70
2022-11-13T22:05:27.936Z,89.30
2022-11-13T22:07:58.195Z,90.20
2022-11-13T22:10:29.677Z,90.20
2022-11-13T22:12:59.971Z,88.20
2022-11-13T22:15:30.243Z,88.10
2022-11-13T22:18:00.552Z,88.70
2022-11-13T22:20:37.187Z,86.50
2022-11-13T22:23:08.832Z,88.30
2022-11-13T22:25:40.312Z,90.10
2022-11-13T22:28:11.798Z,89.00
2022-11-13T22:30:42.532Z,90.00
2022-11-13T22:33:13.478Z,88.30
2022-11-13T22:35:44.114Z,89.00
2022-11-13T22:38:15.718Z,87.60
2022-11-13T22:40:46.577Z,88.00
2022-11-13T22:43:17.500Z,85.90
2022-11-13T22:45:49.125Z,86.00
2022-11-13T22:48:20.313Z,82.90
2022-11-13T22:50:50.462Z,85.10
2022-11-13T22:53:20.713Z,82.40
2022-11-13T22:55:50.941Z,84.60
2022-11-13T22:58:21.179Z,83.70
2022-11-13T23:00:51.377Z,83.10
2022-11-13T23:03:21.622Z,85.00
2022-11-13T23:05:51.940Z,85.50
2022-11-13T23:08:28.272Z,85.40
2022-11-13T23:11:00.101Z,85.90
2022-11-13T23:13:30.931Z,85.60
2022-11-13T23:16:02.640Z,83.90
2022-11-13T23:18:34.818Z,84.80
2022-11-13T23:21:05.509Z,85.10
2022-11-13T23:23:38.238Z,85.30
2022-11-13T23:26:10.678Z,83.30
2022-11-13T23:28:41.908Z,82.80
2022-11-13T23:31:14.622Z,81.80
2022-11-13T23:33:47.230Z,84.20
2022-11-13T23:36:20.090Z,82.50
2022-11-13T23:38:50.984Z,85.00
2022-11-13T23:41:23.348Z,82.60
2022-11-13T23:44:08.197Z,83.20
2022-11-13T23:46:41.123Z,81.60
2022-11-13T23:49:12.998Z,80.40
2022-11-13T23:51:44.515Z,79.60
2022-11-13T23:54:17.052Z,82.40
2022-11-13T23:56:47.728Z,84.00
2022-11-13T23:59:17.965Z,83.50
